sensor_id;sensor_type;location;lat;lon;timestamp;P1;durP1;ratioP1;P2;durP2;ratioP2
9436;SDS011;4757;59.334;18.034;2023-08-21T00:00:57;21.13;;;15.07;;
9436;SDS011;4757;59.334;18.034;2023-08-21T00:03:24;15.80;;;12.60;;
9436;SDS011;4757;59.334;18.034;2023-08-21T00:05:51;16.73;;;12.95;;
9436;SDS011;4757;59.334;18.034;2023-08-21T00:08:19;14.13;;;11.30;;
9436;SDS011;4757;59.334;18.034;2023-08-21T00:10:46;13.13;;;11.35;;
9436;SDS011;4757;59.334;18.034;2023-08-21T00:13:14;12.02;;;10.68;;
9436;SDS011;4757;59.334;18.034;2023-08-21T00:15:41;11.82;;;10.07;;
9436;SDS011;4757;59.334;18.034;2023-08-21T00:18:08;12.50;;;10.85;;
9436;SDS011;4757;59.334;18.034;2023-08-21T00:20:35;11.67;;;10.47;;
9436;SDS011;4757;59.334;18.034;2023-08-21T00:23:02;18.30;;;12.02;;
9436;SDS011;4757;59.334;18.034;2023-08-21T00:25:30;12.77;;;10.98;;
9436;SDS011;4757;59.334;18.034;2023-08-21T00:27:57;15.93;;;12.70;;
9436;SDS011;4757;59.334;18.034;2023-08-21T00:30:24;15.95;;;12.70;;
9436;SDS011;4757;59.334;18.034;2023-08-21T00:32:51;20.75;;;13.50;;
9436;SDS011;4757;59.334;18.034;2023-08-21T00:35:18;18.10;;;13.07;;
9436;SDS011;4757;59.334;18.034;2023-08-21T00:37:46;16.85;;;13.63;;
9436;SDS011;4757;59.334;18.034;2023-08-21T00:40:13;17.00;;;13.73;;
9436;SDS011;4757;59.334;18.034;2023-08-21T00:42:40;17.25;;;13.82;;
9436;SDS011;4757;59.334;18.034;2023-08-21T00:45:07;15.18;;;13.48;;
9436;SDS011;4757;59.334;18.034;2023-08-21T00:47:35;16.88;;;13.93;;
9436;SDS011;4757;59.334;18.034;2023-08-21T00:50:02;16.25;;;13.50;;
9436;SDS011;4757;59.334;18.034;2023-08-21T00:52:36;17.60;;;13.55;;
9436;SDS011;4757;59.334;18.034;2023-08-21T00:55:06;15.10;;;13.50;;
9436;SDS011;4757;59.334;18.034;2023-08-21T00:57:34;15.18;;;13.35;;
9436;SDS011;4757;59.334;18.034;2023-08-21T01:00:03;14.88;;;13.15;;
9436;SDS011;4757;59.334;18.034;2023-08-21T01:02:32;18.58;;;14.18;;
9436;SDS011;4757;59.334;18.034;2023-08-21T01:04:59;14.50;;;12.98;;
9436;SDS011;4757;59.334;18.034;2023-08-21T01:07:26;15.80;;;13.60;;
9436;SDS011;4757;59.334;18.034;2023-08-21T01:12:33;14.98;;;12.93;;
9436;SDS011;4757;59.334;18.034;2023-08-21T01:15:08;15.35;;;13.40;;
9436;SDS011;4757;59.334;18.034;2023-08-21T01:17:38;14.80;;;13.20;;
9436;SDS011;4757;59.334;18.034;2023-08-21T01:20:07;13.20;;;11.80;;
9436;SDS011;4757;59.334;18.034;2023-08-21T01:22:40;13.97;;;12.57;;
9436;SDS011;4757;59.334;18.034;2023-08-21T01:25:12;13.80;;;12.40;;
9436;SDS011;4757;59.334;18.034;2023-08-21T01:27:49;14.07;;;12.57;;
9436;SDS011;4757;59.334;18.034;2023-08-21T01:30:17;15.38;;;12.75;;
9436;SDS011;4757;59.334;18.034;2023-08-21T01:32:55;15.63;;;12.05;;
9436;SDS011;4757;59.334;18.034;2023-08-21T01:35:33;14.00;;;12.30;;
9436;SDS011;4757;59.334;18.034;2023-08-21T01:38:04;13.43;;;12.03;;
9436;SDS011;4757;59.334;18.034;2023-08-21T01:40:32;15.40;;;12.07;;
9436;SDS011;4757;59.334;18.034;2023-08-21T01:42:59;16.05;;;12.90;;
9436;SDS011;4757;59.334;18.034;2023-08-21T01:45:27;13.53;;;12.13;;
9436;SDS011;4757;59.334;18.034;2023-08-21T01:47:54;12.85;;;11.55;;
9436;SDS011;4757;59.334;18.034;2023-08-21T01:50:21;13.40;;;11.70;;
9436;SDS011;4757;59.334;18.034;2023-08-21T01:52:49;12.85;;;11.55;;
9436;SDS011;4757;59.334;18.034;2023-08-21T01:55:16;14.20;;;12.07;;
9436;SDS011;4757;59.334;18.034;2023-08-21T01:57:43;12.73;;;11.38;;
9436;SDS011;4757;59.334;18.034;2023-08-21T02:00:10;13.23;;;11.80;;
9436;SDS011;4757;59.334;18.034;2023-08-21T02:02:39;13.18;;;11.77;;
9436;SDS011;4757;59.334;18.034;2023-08-21T02:05:07;13.50;;;11.98;;
9436;SDS011;4757;59.334;18.034;2023-08-21T02:07:34;13.95;;;12.18;;
9436;SDS011;4757;59.334;18.034;2023-08-21T02:10:01;12.93;;;11.45;;
9436;SDS011;4757;59.334;18.034;2023-08-21T02:12:28;12.32;;;11.07;;
9436;SDS011;4757;59.334;18.034;2023-08-21T02:14:58;13.63;;;11.90;;
9436;SDS011;4757;59.334;18.034;2023-08-21T02:17:26;11.68;;;10.57;;
9436;SDS011;4757;59.334;18.034;2023-08-21T02:19:53;12.40;;;11.10;;
9436;SDS011;4757;59.334;18.034;2023-08-21T02:22:20;12.90;;;11.25;;
9436;SDS011;4757;59.334;18.034;2023-08-21T02:24:47;13.85;;;10.68;;
9436;SDS011;4757;59.334;18.034;2023-08-21T02:27:14;15.35;;;11.38;;
9436;SDS011;4757;59.334;18.034;2023-08-21T02:29:42;11.80;;;10.52;;
9436;SDS011;4757;59.334;18.034;2023-08-21T02:32:09;12.98;;;11.10;;
9436;SDS011;4757;59.334;18.034;2023-08-21T02:34:36;12.77;;;11.48;;
9436;SDS011;4757;59.334;18.034;2023-08-21T02:37:03;12.48;;;11.13;;
9436;SDS011;4757;59.334;18.034;2023-08-21T02:39:31;12.63;;;10.90;;
9436;SDS011;4757;59.334;18.034;2023-08-21T02:41:58;11.75;;;10.55;;
9436;SDS011;4757;59.334;18.034;2023-08-21T02:44:25;12.57;;;11.23;;
9436;SDS011;4757;59.334;18.034;2023-08-21T02:46:52;11.73;;;10.50;;
9436;SDS011;4757;59.334;18.034;2023-08-21T02:49:20;12.00;;;10.48;;
9436;SDS011;4757;59.334;18.034;2023-08-21T02:51:47;12.07;;;10.85;;
9436;SDS011;4757;59.334;18.034;2023-08-21T02:54:14;13.18;;;10.00;;
9436;SDS011;4757;59.334;18.034;2023-08-21T02:56:41;11.60;;;10.47;;
9436;SDS011;4757;59.334;18.034;2023-08-21T02:59:08;11.82;;;9.57;;
9436;SDS011;4757;59.334;18.034;2023-08-21T03:01:35;11.00;;;9.80;;
9436;SDS011;4757;59.334;18.034;2023-08-21T03:04:02;11.55;;;10.35;;
9436;SDS011;4757;59.334;18.034;2023-08-21T03:06:30;11.50;;;10.13;;
9436;SDS011;4757;59.334;18.034;2023-08-21T03:08:57;11.40;;;10.03;;
9436;SDS011;4757;59.334;18.034;2023-08-21T03:11:24;11.07;;;9.98;;
9436;SDS011;4757;59.334;18.034;2023-08-21T03:13:51;11.35;;;9.75;;
9436;SDS011;4757;59.334;18.034;2023-08-21T03:16:18;11.05;;;9.95;;
9436;SDS011;4757;59.334;18.034;2023-08-21T03:18:58;10.73;;;9.63;;
9436;SDS011;4757;59.334;18.034;2023-08-21T03:21:26;10.70;;;9.38;;
9436;SDS011;4757;59.334;18.034;2023-08-21T03:23:55;11.30;;;9.48;;
9436;SDS011;4757;59.334;18.034;2023-08-21T03:26:24;10.70;;;9.60;;
9436;SDS011;4757;59.334;18.034;2023-08-21T03:28:52;10.38;;;9.48;;
9436;SDS011;4757;59.334;18.034;2023-08-21T03:31:19;10.27;;;9.23;;
9436;SDS011;4757;59.334;18.034;2023-08-21T03:33:49;11.32;;;9.35;;
9436;SDS011;4757;59.334;18.034;2023-08-21T03:36:16;9.98;;;9.02;;
9436;SDS011;4757;59.334;18.034;2023-08-21T03:38:47;11.93;;;8.88;;
9436;SDS011;4757;59.334;18.034;2023-08-21T03:41:14;10.82;;;9.32;;
9436;SDS011;4757;59.334;18.034;2023-08-21T03:43:41;9.35;;;8.35;;
9436;SDS011;4757;59.334;18.034;2023-08-21T03:46:09;9.55;;;8.70;;
9436;SDS011;4757;59.334;18.034;2023-08-21T03:48:36;9.02;;;8.13;;
9436;SDS011;4757;59.334;18.034;2023-08-21T03:51:03;8.48;;;7.60;;
9436;SDS011;4757;59.334;18.034;2023-08-21T03:53:30;9.25;;;7.35;;
9436;SDS011;4757;59.334;18.034;2023-08-21T03:55:58;9.20;;;7.30;;
9436;SDS011;4757;59.334;18.034;2023-08-21T03:58:25;8.02;;;7.22;;
9436;SDS011;4757;59.334;18.034;2023-08-21T04:00:53;7.72;;;7.03;;
9436;SDS011;4757;59.334;18.034;2023-08-21T04:03:20;7.03;;;6.15;;
9436;SDS011;4757;59.334;18.034;2023-08-21T04:05:47;7.75;;;6.35;;
9436;SDS011;4757;59.334;18.034;2023-08-21T04:08:15;6.47;;;5.78;;
9436;SDS011;4757;59.334;18.034;2023-08-21T04:10:42;5.70;;;5.20;;
9436;SDS011;4757;59.334;18.034;2023-08-21T04:13:09;6.30;;;5.70;;
9436;SDS011;4757;59.334;18.034;2023-08-21T04:15:36;5.53;;;5.03;;
9436;SDS011;4757;59.334;18.034;2023-08-21T04:18:04;6.38;;;5.70;;
9436;SDS011;4757;59.334;18.034;2023-08-21T04:20:31;6.75;;;6.10;;
9436;SDS011;4757;59.334;18.034;2023-08-21T04:23:04;6.75;;;5.28;;
9436;SDS011;4757;59.334;18.034;2023-08-21T04:25:47;6.20;;;5.50;;
9436;SDS011;4757;59.334;18.034;2023-08-21T04:28:14;6.27;;;5.40;;
9436;SDS011;4757;59.334;18.034;2023-08-21T04:30:41;7.43;;;5.63;;
9436;SDS011;4757;59.334;18.034;2023-08-21T04:33:08;6.03;;;5.47;;
9436;SDS011;4757;59.334;18.034;2023-08-21T04:35:36;6.47;;;4.55;;
9436;SDS011;4757;59.334;18.034;2023-08-21T04:38:06;5.55;;;5.00;;
9436;SDS011;4757;59.334;18.034;2023-08-21T04:40:33;7.57;;;4.90;;
9436;SDS011;4757;59.334;18.034;2023-08-21T04:43:00;5.93;;;4.78;;
9436;SDS011;4757;59.334;18.034;2023-08-21T04:45:27;5.20;;;4.70;;
9436;SDS011;4757;59.334;18.034;2023-08-21T04:47:55;6.05;;;4.63;;
9436;SDS011;4757;59.334;18.034;2023-08-21T04:50:24;5.03;;;4.53;;
9436;SDS011;4757;59.334;18.034;2023-08-21T04:52:51;5.65;;;4.72;;
9436;SDS011;4757;59.334;18.034;2023-08-21T04:55:18;5.35;;;4.70;;
9436;SDS011;4757;59.334;18.034;2023-08-21T04:57:45;5.00;;;4.50;;
9436;SDS011;4757;59.334;18.034;2023-08-21T05:00:13;5.03;;;4.53;;
9436;SDS011;4757;59.334;18.034;2023-08-21T05:02:41;6.05;;;5.10;;
9436;SDS011;4757;59.334;18.034;2023-08-21T05:05:09;5.72;;;4.90;;
9436;SDS011;4757;59.334;18.034;2023-08-21T05:07:36;5.53;;;4.97;;
9436;SDS011;4757;59.334;18.034;2023-08-21T05:10:04;5.90;;;4.80;;
9436;SDS011;4757;59.334;18.034;2023-08-21T05:12:32;5.70;;;4.95;;
9436;SDS011;4757;59.334;18.034;2023-08-21T05:15:02;6.07;;;4.97;;
9436;SDS011;4757;59.334;18.034;2023-08-21T05:17:30;5.57;;;4.93;;
9436;SDS011;4757;59.334;18.034;2023-08-21T05:19:57;5.57;;;4.50;;
9436;SDS011;4757;59.334;18.034;2023-08-21T05:22:24;7.40;;;4.90;;
9436;SDS011;4757;59.334;18.034;2023-08-21T05:24:52;5.20;;;4.70;;
9436;SDS011;4757;59.334;18.034;2023-08-21T05:27:19;5.47;;;4.80;;
9436;SDS011;4757;59.334;18.034;2023-08-21T05:29:46;5.78;;;5.03;;
9436;SDS011;4757;59.334;18.034;2023-08-21T05:32:15;5.25;;;4.70;;
9436;SDS011;4757;59.334;18.034;2023-08-21T05:34:42;4.70;;;4.30;;
9436;SDS011;4757;59.334;18.034;2023-08-21T05:37:11;5.18;;;4.47;;
9436;SDS011;4757;59.334;18.034;2023-08-21T05:39:38;6.43;;;5.00;;
9436;SDS011;4757;59.334;18.034;2023-08-21T05:42:08;4.97;;;4.50;;
9436;SDS011;4757;59.334;18.034;2023-08-21T05:44:36;5.33;;;4.83;;
9436;SDS011;4757;59.334;18.034;2023-08-21T05:47:03;5.38;;;4.82;;
9436;SDS011;4757;59.334;18.034;2023-08-21T05:49:32;6.43;;;4.85;;
9436;SDS011;4757;59.334;18.034;2023-08-21T05:52:00;7.20;;;4.35;;
9436;SDS011;4757;59.334;18.034;2023-08-21T05:54:27;6.45;;;4.18;;
9436;SDS011;4757;59.334;18.034;2023-08-21T05:56:54;5.75;;;4.50;;
9436;SDS011;4757;59.334;18.034;2023-08-21T05:59:31;7.67;;;4.10;;
9436;SDS011;4757;59.334;18.034;2023-08-21T06:02:01;8.18;;;4.50;;
9436;SDS011;4757;59.334;18.034;2023-08-21T06:04:41;5.95;;;3.83;;
9436;SDS011;4757;59.334;18.034;2023-08-21T06:07:09;5.13;;;4.25;;
9436;SDS011;4757;59.334;18.034;2023-08-21T06:09:37;4.22;;;3.80;;
9436;SDS011;4757;59.334;18.034;2023-08-21T06:12:07;5.60;;;4.03;;
9436;SDS011;4757;59.334;18.034;2023-08-21T06:14:35;7.63;;;4.40;;
9436;SDS011;4757;59.334;18.034;2023-08-21T06:17:03;5.32;;;3.90;;
9436;SDS011;4757;59.334;18.034;2023-08-21T06:19:31;6.17;;;3.67;;
9436;SDS011;4757;59.334;18.034;2023-08-21T06:21:58;4.93;;;3.38;;
9436;SDS011;4757;59.334;18.034;2023-08-21T06:24:25;6.70;;;4.97;;
9436;SDS011;4757;59.334;18.034;2023-08-21T06:26:52;8.38;;;4.18;;
9436;SDS011;4757;59.334;18.034;2023-08-21T06:29:19;6.57;;;3.83;;
9436;SDS011;4757;59.334;18.034;2023-08-21T06:31:47;5.10;;;3.45;;
9436;SDS011;4757;59.334;18.034;2023-08-21T06:34:14;5.32;;;3.58;;
9436;SDS011;4757;59.334;18.034;2023-08-21T06:36:41;7.65;;;4.05;;
9436;SDS011;4757;59.334;18.034;2023-08-21T06:39:08;5.88;;;3.80;;
9436;SDS011;4757;59.334;18.034;2023-08-21T06:41:35;6.93;;;3.95;;
9436;SDS011;4757;59.334;18.034;2023-08-21T06:44:03;5.05;;;3.78;;
9436;SDS011;4757;59.334;18.034;2023-08-21T06:46:30;4.50;;;3.13;;
9436;SDS011;4757;59.334;18.034;2023-08-21T06:49:00;6.88;;;3.65;;
9436;SDS011;4757;59.334;18.034;2023-08-21T06:51:27;5.53;;;3.40;;
9436;SDS011;4757;59.334;18.034;2023-08-21T06:53:54;8.43;;;4.18;;
9436;SDS011;4757;59.334;18.034;2023-08-21T06:56:21;5.85;;;3.78;;
9436;SDS011;4757;59.334;18.034;2023-08-21T06:58:59;8.07;;;4.22;;
9436;SDS011;4757;59.334;18.034;2023-08-21T07:01:31;5.32;;;3.92;;
9436;SDS011;4757;59.334;18.034;2023-08-21T07:04:00;7.97;;;4.30;;
9436;SDS011;4757;59.334;18.034;2023-08-21T07:06:27;5.72;;;3.88;;
9436;SDS011;4757;59.334;18.034;2023-08-21T07:08:55;7.20;;;3.83;;
9436;SDS011;4757;59.334;18.034;2023-08-21T07:11:23;4.90;;;3.03;;
9436;SDS011;4757;59.334;18.034;2023-08-21T07:13:50;3.97;;;3.30;;
9436;SDS011;4757;59.334;18.034;2023-08-21T07:16:17;6.15;;;3.40;;
9436;SDS011;4757;59.334;18.034;2023-08-21T07:18:44;8.32;;;4.15;;
9436;SDS011;4757;59.334;18.034;2023-08-21T07:21:11;6.03;;;3.65;;
9436;SDS011;4757;59.334;18.034;2023-08-21T07:23:57;5.63;;;3.08;;
9436;SDS011;4757;59.334;18.034;2023-08-21T07:26:25;5.63;;;3.35;;
9436;SDS011;4757;59.334;18.034;2023-08-21T07:28:52;4.43;;;3.15;;
9436;SDS011;4757;59.334;18.034;2023-08-21T07:31:20;6.68;;;3.65;;
9436;SDS011;4757;59.334;18.034;2023-08-21T07:33:47;4.77;;;3.30;;
9436;SDS011;4757;59.334;18.034;2023-08-21T07:36:14;4.63;;;3.47;;
9436;SDS011;4757;59.334;18.034;2023-08-21T07:38:45;4.40;;;3.38;;
9436;SDS011;4757;59.334;18.034;2023-08-21T07:41:12;7.85;;;4.45;;
9436;SDS011;4757;59.334;18.034;2023-08-21T07:43:40;4.55;;;3.20;;
9436;SDS011;4757;59.334;18.034;2023-08-21T07:46:08;4.88;;;3.50;;
9436;SDS011;4757;59.334;18.034;2023-08-21T07:48:40;5.15;;;3.17;;
9436;SDS011;4757;59.334;18.034;2023-08-21T07:51:07;6.43;;;4.43;;
9436;SDS011;4757;59.334;18.034;2023-08-21T07:53:34;6.38;;;3.50;;
9436;SDS011;4757;59.334;18.034;2023-08-21T07:56:02;7.85;;;3.70;;
9436;SDS011;4757;59.334;18.034;2023-08-21T07:58:30;4.68;;;3.58;;
9436;SDS011;4757;59.334;18.034;2023-08-21T08:01:01;8.60;;;3.85;;
9436;SDS011;4757;59.334;18.034;2023-08-21T08:03:29;4.63;;;3.50;;
9436;SDS011;4757;59.334;18.034;2023-08-21T08:05:56;5.40;;;3.50;;
9436;SDS011;4757;59.334;18.034;2023-08-21T08:08:24;5.72;;;3.55;;
9436;SDS011;4757;59.334;18.034;2023-08-21T08:10:52;9.23;;;3.33;;
9436;SDS011;4757;59.334;18.034;2023-08-21T08:13:19;4.90;;;3.78;;
9436;SDS011;4757;59.334;18.034;2023-08-21T08:15:46;5.13;;;4.05;;
9436;SDS011;4757;59.334;18.034;2023-08-21T08:18:14;7.18;;;3.70;;
9436;SDS011;4757;59.334;18.034;2023-08-21T08:20:41;7.22;;;3.55;;
9436;SDS011;4757;59.334;18.034;2023-08-21T08:23:08;5.53;;;3.15;;
9436;SDS011;4757;59.334;18.034;2023-08-21T08:25:35;8.30;;;3.47;;
9436;SDS011;4757;59.334;18.034;2023-08-21T08:28:03;4.15;;;3.40;;
9436;SDS011;4757;59.334;18.034;2023-08-21T08:30:30;7.82;;;3.65;;
9436;SDS011;4757;59.334;18.034;2023-08-21T08:32:58;3.70;;;3.13;;
9436;SDS011;4757;59.334;18.034;2023-08-21T08:35:25;4.50;;;3.45;;
9436;SDS011;4757;59.334;18.034;2023-08-21T08:37:52;5.00;;;3.60;;
9436;SDS011;4757;59.334;18.034;2023-08-21T08:40:22;4.22;;;3.05;;
9436;SDS011;4757;59.334;18.034;2023-08-21T08:42:50;6.63;;;3.60;;
9436;SDS011;4757;59.334;18.034;2023-08-21T08:45:20;5.67;;;3.60;;
9436;SDS011;4757;59.334;18.034;2023-08-21T08:47:59;6.13;;;3.20;;
9436;SDS011;4757;59.334;18.034;2023-08-21T08:50:31;4.22;;;3.10;;
9436;SDS011;4757;59.334;18.034;2023-08-21T08:52:59;7.13;;;3.70;;
9436;SDS011;4757;59.334;18.034;2023-08-21T08:55:43;4.75;;;4.00;;
9436;SDS011;4757;59.334;18.034;2023-08-21T08:58:12;7.35;;;4.22;;
9436;SDS011;4757;59.334;18.034;2023-08-21T09:00:40;12.05;;;3.45;;
9436;SDS011;4757;59.334;18.034;2023-08-21T09:03:09;5.93;;;3.20;;
9436;SDS011;4757;59.334;18.034;2023-08-21T09:05:47;5.63;;;3.50;;
9436;SDS011;4757;59.334;18.034;2023-08-21T09:08:15;5.57;;;3.20;;
9436;SDS011;4757;59.334;18.034;2023-08-21T09:10:42;5.22;;;3.20;;
9436;SDS011;4757;59.334;18.034;2023-08-21T09:15:38;4.70;;;3.65;;
9436;SDS011;4757;59.334;18.034;2023-08-21T09:18:11;4.63;;;2.90;;
9436;SDS011;4757;59.334;18.034;2023-08-21T09:20:38;4.80;;;2.95;;
9436;SDS011;4757;59.334;18.034;2023-08-21T09:23:06;4.68;;;2.90;;
9436;SDS011;4757;59.334;18.034;2023-08-21T09:25:34;5.78;;;2.83;;
9436;SDS011;4757;59.334;18.034;2023-08-21T09:28:09;5.63;;;3.10;;
9436;SDS011;4757;59.334;18.034;2023-08-21T09:33:33;5.20;;;3.03;;
9436;SDS011;4757;59.334;18.034;2023-08-21T09:36:00;3.33;;;2.95;;
9436;SDS011;4757;59.334;18.034;2023-08-21T09:38:29;5.63;;;2.85;;
9436;SDS011;4757;59.334;18.034;2023-08-21T09:40:56;5.88;;;2.92;;
9436;SDS011;4757;59.334;18.034;2023-08-21T09:43:24;3.25;;;2.47;;
9436;SDS011;4757;59.334;18.034;2023-08-21T09:45:52;6.40;;;3.20;;
9436;SDS011;4757;59.334;18.034;2023-08-21T09:48:22;3.38;;;3.08;;
9436;SDS011;4757;59.334;18.034;2023-08-21T09:50:51;3.92;;;3.20;;
9436;SDS011;4757;59.334;18.034;2023-08-21T09:53:21;4.82;;;3.28;;
9436;SDS011;4757;59.334;18.034;2023-08-21T09:55:52;4.57;;;3.25;;
9436;SDS011;4757;59.334;18.034;2023-08-21T09:58:20;5.00;;;3.10;;
9436;SDS011;4757;59.334;18.034;2023-08-21T10:00:48;4.20;;;2.95;;
9436;SDS011;4757;59.334;18.034;2023-08-21T10:03:20;3.97;;;2.80;;
9436;SDS011;4757;59.334;18.034;2023-08-21T10:05:49;5.30;;;3.53;;
9436;SDS011;4757;59.334;18.034;2023-08-21T10:08:18;4.13;;;3.00;;
9436;SDS011;4757;59.334;18.034;2023-08-21T10:10:51;4.82;;;3.05;;
9436;SDS011;4757;59.334;18.034;2023-08-21T10:13:19;4.82;;;3.25;;
9436;SDS011;4757;59.334;18.034;2023-08-21T10:15:46;4.30;;;3.08;;
9436;SDS011;4757;59.334;18.034;2023-08-21T10:18:30;5.22;;;3.30;;
9436;SDS011;4757;59.334;18.034;2023-08-21T10:21:15;3.57;;;3.20;;
9436;SDS011;4757;59.334;18.034;2023-08-21T10:23:47;3.30;;;3.00;;
9436;SDS011;4757;59.334;18.034;2023-08-21T10:26:15;6.78;;;3.50;;
9436;SDS011;4757;59.334;18.034;2023-08-21T10:31:25;3.85;;;3.00;;
9436;SDS011;4757;59.334;18.034;2023-08-21T10:34:03;5.80;;;3.40;;
9436;SDS011;4757;59.334;18.034;2023-08-21T10:39:24;4.03;;;3.63;;
9436;SDS011;4757;59.334;18.034;2023-08-21T10:41:56;5.55;;;2.63;;
9436;SDS011;4757;59.334;18.034;2023-08-21T10:45:07;4.30;;;2.30;;
9436;SDS011;4757;59.334;18.034;2023-08-21T10:47:19;4.03;;;2.40;;
9436;SDS011;4757;59.334;18.034;2023-08-21T10:49:50;3.85;;;3.10;;
9436;SDS011;4757;59.334;18.034;2023-08-21T10:52:25;3.88;;;3.30;;
9436;SDS011;4757;59.334;18.034;2023-08-21T10:55:14;4.15;;;2.65;;
9436;SDS011;4757;59.334;18.034;2023-08-21T10:57:48;3.75;;;2.30;;
9436;SDS011;4757;59.334;18.034;2023-08-21T11:00:19;4.25;;;2.55;;
9436;SDS011;4757;59.334;18.034;2023-08-21T11:02:48;4.10;;;2.58;;
9436;SDS011;4757;59.334;18.034;2023-08-21T11:05:16;5.03;;;2.58;;
9436;SDS011;4757;59.334;18.034;2023-08-21T11:07:45;4.55;;;2.88;;
9436;SDS011;4757;59.334;18.034;2023-08-21T11:10:13;7.05;;;3.10;;
9436;SDS011;4757;59.334;18.034;2023-08-21T11:12:51;4.63;;;2.60;;
9436;SDS011;4757;59.334;18.034;2023-08-21T11:15:29;4.97;;;2.75;;
9436;SDS011;4757;59.334;18.034;2023-08-21T11:18:00;5.60;;;2.50;;
9436;SDS011;4757;59.334;18.034;2023-08-21T11:20:31;3.85;;;2.75;;
9436;SDS011;4757;59.334;18.034;2023-08-21T11:23:00;4.03;;;2.30;;
9436;SDS011;4757;59.334;18.034;2023-08-21T11:25:34;3.97;;;2.50;;
9436;SDS011;4757;59.334;18.034;2023-08-21T11:28:04;3.78;;;2.50;;
9436;SDS011;4757;59.334;18.034;2023-08-21T11:30:32;4.53;;;2.40;;
9436;SDS011;4757;59.334;18.034;2023-08-21T11:33:07;5.20;;;2.70;;
9436;SDS011;4757;59.334;18.034;2023-08-21T11:35:39;3.80;;;2.20;;
9436;SDS011;4757;59.334;18.034;2023-08-21T11:38:18;4.45;;;2.78;;
9436;SDS011;4757;59.334;18.034;2023-08-21T11:43:41;3.28;;;2.50;;
9436;SDS011;4757;59.334;18.034;2023-08-21T11:46:22;4.53;;;2.70;;
9436;SDS011;4757;59.334;18.034;2023-08-21T11:48:49;3.90;;;2.38;;
9436;SDS011;4757;59.334;18.034;2023-08-21T11:51:19;3.22;;;2.33;;
9436;SDS011;4757;59.334;18.034;2023-08-21T11:53:47;2.75;;;2.22;;
9436;SDS011;4757;59.334;18.034;2023-08-21T11:56:17;5.40;;;2.83;;
9436;SDS011;4757;59.334;18.034;2023-08-21T11:58:49;4.82;;;2.45;;
9436;SDS011;4757;59.334;18.034;2023-08-21T12:01:20;7.18;;;2.28;;
9436;SDS011;4757;59.334;18.034;2023-08-21T12:03:48;4.80;;;2.60;;
9436;SDS011;4757;59.334;18.034;2023-08-21T12:06:23;4.50;;;2.37;;
9436;SDS011;4757;59.334;18.034;2023-08-21T12:08:52;4.95;;;2.60;;
9436;SDS011;4757;59.334;18.034;2023-08-21T12:11:20;3.60;;;2.08;;
9436;SDS011;4757;59.334;18.034;2023-08-21T12:13:49;4.72;;;2.50;;
9436;SDS011;4757;59.334;18.034;2023-08-21T12:16:18;3.70;;;2.38;;
9436;SDS011;4757;59.334;18.034;2023-08-21T12:18:46;3.67;;;2.40;;
9436;SDS011;4757;59.334;18.034;2023-08-21T12:21:13;4.53;;;2.53;;
9436;SDS011;4757;59.334;18.034;2023-08-21T12:23:40;5.10;;;2.67;;
9436;SDS011;4757;59.334;18.034;2023-08-21T12:26:08;4.70;;;2.22;;
9436;SDS011;4757;59.334;18.034;2023-08-21T12:28:49;5.13;;;2.33;;
9436;SDS011;4757;59.334;18.034;2023-08-21T12:31:18;2.37;;;2.17;;
9436;SDS011;4757;59.334;18.034;2023-08-21T12:33:45;3.40;;;1.93;;
9436;SDS011;4757;59.334;18.034;2023-08-21T12:36:13;2.70;;;1.93;;
9436;SDS011;4757;59.334;18.034;2023-08-21T12:38:42;4.63;;;2.07;;
9436;SDS011;4757;59.334;18.034;2023-08-21T12:41:11;6.75;;;3.13;;
9436;SDS011;4757;59.334;18.034;2023-08-21T12:43:41;3.63;;;2.45;;
9436;SDS011;4757;59.334;18.034;2023-08-21T12:46:22;4.00;;;2.17;;
9436;SDS011;4757;59.334;18.034;2023-08-21T12:48:50;3.20;;;1.95;;
9436;SDS011;4757;59.334;18.034;2023-08-21T12:51:18;3.88;;;2.38;;
9436;SDS011;4757;59.334;18.034;2023-08-21T12:53:45;3.13;;;2.10;;
9436;SDS011;4757;59.334;18.034;2023-08-21T12:56:16;4.57;;;2.43;;
9436;SDS011;4757;59.334;18.034;2023-08-21T12:58:56;4.85;;;2.97;;
9436;SDS011;4757;59.334;18.034;2023-08-21T13:01:37;4.30;;;2.22;;
9436;SDS011;4757;59.334;18.034;2023-08-21T13:04:12;4.20;;;1.90;;
9436;SDS011;4757;59.334;18.034;2023-08-21T13:06:39;3.63;;;2.50;;
9436;SDS011;4757;59.334;18.034;2023-08-21T13:09:07;6.75;;;2.55;;
9436;SDS011;4757;59.334;18.034;2023-08-21T13:11:35;5.20;;;2.10;;
9436;SDS011;4757;59.334;18.034;2023-08-21T13:14:02;5.00;;;2.08;;
9436;SDS011;4757;59.334;18.034;2023-08-21T13:16:29;3.78;;;2.00;;
9436;SDS011;4757;59.334;18.034;2023-08-21T13:18:56;2.78;;;2.38;;
9436;SDS011;4757;59.334;18.034;2023-08-21T13:21:24;6.50;;;2.63;;
9436;SDS011;4757;59.334;18.034;2023-08-21T13:23:54;4.53;;;1.95;;
9436;SDS011;4757;59.334;18.034;2023-08-21T13:26:21;4.68;;;2.15;;
9436;SDS011;4757;59.334;18.034;2023-08-21T13:28:48;3.55;;;2.05;;
9436;SDS011;4757;59.334;18.034;2023-08-21T13:31:16;3.10;;;2.00;;
9436;SDS011;4757;59.334;18.034;2023-08-21T13:33:46;4.25;;;2.20;;
9436;SDS011;4757;59.334;18.034;2023-08-21T13:36:17;3.10;;;2.03;;
9436;SDS011;4757;59.334;18.034;2023-08-21T13:38:45;4.32;;;2.03;;
9436;SDS011;4757;59.334;18.034;2023-08-21T13:41:13;9.82;;;3.03;;
9436;SDS011;4757;59.334;18.034;2023-08-21T13:43:40;4.93;;;2.20;;
9436;SDS011;4757;59.334;18.034;2023-08-21T13:46:11;3.55;;;2.63;;
9436;SDS011;4757;59.334;18.034;2023-08-21T13:48:39;3.20;;;2.10;;
9436;SDS011;4757;59.334;18.034;2023-08-21T13:51:06;4.38;;;2.15;;
9436;SDS011;4757;59.334;18.034;2023-08-21T13:53:33;4.70;;;2.60;;
9436;SDS011;4757;59.334;18.034;2023-08-21T13:56:00;2.10;;;1.90;;
9436;SDS011;4757;59.334;18.034;2023-08-21T13:58:28;3.27;;;2.67;;
9436;SDS011;4757;59.334;18.034;2023-08-21T14:00:55;3.37;;;2.20;;
9436;SDS011;4757;59.334;18.034;2023-08-21T14:03:23;2.50;;;1.67;;
9436;SDS011;4757;59.334;18.034;2023-08-21T14:05:51;4.00;;;2.08;;
9436;SDS011;4757;59.334;18.034;2023-08-21T14:08:18;3.92;;;2.25;;
9436;SDS011;4757;59.334;18.034;2023-08-21T14:10:46;3.45;;;2.25;;
9436;SDS011;4757;59.334;18.034;2023-08-21T14:13:13;3.83;;;2.30;;
9436;SDS011;4757;59.334;18.034;2023-08-21T14:15:40;1.88;;;1.77;;
9436;SDS011;4757;59.334;18.034;2023-08-21T14:18:07;5.40;;;2.20;;
9436;SDS011;4757;59.334;18.034;2023-08-21T14:20:34;3.73;;;1.97;;
9436;SDS011;4757;59.334;18.034;2023-08-21T14:23:02;3.20;;;2.00;;
9436;SDS011;4757;59.334;18.034;2023-08-21T14:25:29;3.25;;;1.70;;
9436;SDS011;4757;59.334;18.034;2023-08-21T14:27:56;2.30;;;1.80;;
9436;SDS011;4757;59.334;18.034;2023-08-21T14:30:24;3.70;;;2.00;;
9436;SDS011;4757;59.334;18.034;2023-08-21T14:32:52;3.67;;;2.10;;
9436;SDS011;4757;59.334;18.034;2023-08-21T14:35:20;5.50;;;4.00;;
9436;SDS011;4757;59.334;18.034;2023-08-21T14:37:47;5.57;;;2.42;;
9436;SDS011;4757;59.334;18.034;2023-08-21T14:40:14;4.75;;;2.13;;
9436;SDS011;4757;59.334;18.034;2023-08-21T14:42:42;3.90;;;1.90;;
9436;SDS011;4757;59.334;18.034;2023-08-21T14:45:10;4.28;;;2.10;;
9436;SDS011;4757;59.334;18.034;2023-08-21T14:47:51;2.72;;;1.77;;
9436;SDS011;4757;59.334;18.034;2023-08-21T14:50:18;4.55;;;2.15;;
9436;SDS011;4757;59.334;18.034;2023-08-21T14:52:45;7.72;;;2.50;;
9436;SDS011;4757;59.334;18.034;2023-08-21T14:55:27;3.38;;;1.75;;
9436;SDS011;4757;59.334;18.034;2023-08-21T14:57:55;3.53;;;1.70;;
9436;SDS011;4757;59.334;18.034;2023-08-21T15:00:22;3.70;;;1.90;;
9436;SDS011;4757;59.334;18.034;2023-08-21T15:02:49;2.87;;;1.50;;
9436;SDS011;4757;59.334;18.034;2023-08-21T15:05:16;4.55;;;1.90;;
9436;SDS011;4757;59.334;18.034;2023-08-21T15:07:43;3.73;;;1.70;;
9436;SDS011;4757;59.334;18.034;2023-08-21T15:10:10;2.58;;;1.60;;
9436;SDS011;4757;59.334;18.034;2023-08-21T15:12:38;2.97;;;1.58;;
9436;SDS011;4757;59.334;18.034;2023-08-21T15:15:05;4.10;;;1.80;;
9436;SDS011;4757;59.334;18.034;2023-08-21T15:17:33;2.65;;;1.98;;
9436;SDS011;4757;59.334;18.034;2023-08-21T15:20:00;3.20;;;1.95;;
9436;SDS011;4757;59.334;18.034;2023-08-21T15:22:33;3.50;;;1.48;;